Time;durP1;ratioP1;P1;durP2;ratioP2;P2;SDS_P1;SDS_P2;PMS_P1;PMS_P2;Temp;Humidity;BMP_temperature;BMP_pressure;BME280_temperature;BME280_humidity;BME280_pressure;Samples;Min_cycle;Max_cycle;Signal;HPM_P1;HPM_P2
2022/04/27 00:00:11;;;;;;;8.03;5.97;;;9.00;99.90;;;;;;5044373;28;20564;-66
2022/04/27 00:03:00;;;;;;;9.27;6.00;;;8.90;99.90;;;;;;5049145;28;20471;-66
2022/04/27 00:05:50;;;;;;;5.50;5.00;;;8.90;99.90;;;;;;5038959;28;20466;-66
2022/04/27 00:08:38;;;;;;;6.60;5.90;;;8.80;99.90;;;;;;5044868;28;20462;-66
2022/04/27 00:11:26;;;;;;;6.80;5.57;;;8.80;99.90;;;;;;5049280;28;20577;-66
2022/04/27 00:14:14;;;;;;;9.07;6.60;;;8.80;99.90;;;;;;5041710;28;20557;-66
2022/04/27 00:17:02;;;;;;;6.70;6.13;;;8.80;99.90;;;;;;5034062;28;20446;-66
2022/04/27 00:19:51;;;;;;;8.00;6.20;;;8.80;99.90;;;;;;5047013;28;20534;-66
2022/04/27 00:22:40;;;;;;;6.60;5.70;;;8.70;99.90;;;;;;5052579;28;21113;-66
2022/04/27 00:25:28;;;;;;;7.10;6.27;;;8.70;99.90;;;;;;5048089;28;21079;-66
2022/04/27 00:28:16;;;;;;;7.00;5.87;;;8.60;99.90;;;;;;5043399;28;20462;-66
2022/04/27 00:31:06;;;;;;;7.57;6.27;;;8.50;99.90;;;;;;5044648;28;20617;-66
2022/04/27 00:33:54;;;;;;;7.23;5.90;;;8.50;99.90;;;;;;5043896;28;21045;-66
2022/04/27 00:36:42;;;;;;;7.50;6.70;;;8.40;99.90;;;;;;5051053;28;20498;-66
2022/04/27 00:39:32;;;;;;;9.17;6.60;;;8.50;99.90;;;;;;5046110;28;20499;-66
2022/04/27 00:42:22;;;;;;;6.23;5.63;;;8.40;99.90;;;;;;5047965;28;20545;-66
2022/04/27 00:45:11;;;;;;;6.93;6.10;;;8.40;99.90;;;;;;5051495;28;20954;-66
2022/04/27 00:47:59;;;;;;;8.20;5.83;;;8.30;99.90;;;;;;5052249;28;20552;-67
2022/04/27 00:50:47;;;;;;;6.57;5.80;;;8.30;99.90;;;;;;5055629;28;21025;-66
2022/04/27 00:53:37;;;;;;;6.57;5.97;;;8.30;99.90;;;;;;5046173;28;20625;-66
2022/04/27 00:56:27;;;;;;;6.07;5.47;;;8.30;99.90;;;;;;5043578;28;20591;-66
2022/04/27 00:59:15;;;;;;;6.17;5.57;;;8.20;99.90;;;;;;5048960;28;20480;-66
2022/04/27 01:02:04;;;;;;;7.60;6.30;;;8.20;99.90;;;;;;5046256;28;20478;-66
2022/04/27 01:04:53;;;;;;;8.70;6.43;;;8.10;99.90;;;;;;5044313;28;20588;-66
2022/04/27 01:07:42;;;;;;;6.40;5.40;;;8.10;99.90;;;;;;5044478;28;20605;-66
2022/04/27 01:10:30;;;;;;;10.03;6.40;;;8.10;99.90;;;;;;5046695;28;20465;-66
2022/04/27 01:13:19;;;;;;;7.80;6.40;;;8.00;99.90;;;;;;5046768;28;21128;-66
2022/04/27 01:16:08;;;;;;;9.37;6.40;;;8.00;99.90;;;;;;5046737;28;20588;-66
2022/04/27 01:18:57;;;;;;;8.20;6.57;;;8.00;99.90;;;;;;5047207;28;20457;-66
2022/04/27 01:21:49;;;;;;;9.67;6.50;;;7.90;99.90;;;;;;5050059;28;20556;-66
2022/04/27 01:24:37;;;;;;;7.30;6.57;;;7.90;99.90;;;;;;5041706;28;20517;-66
2022/04/27 01:27:26;;;;;;;9.60;6.47;;;7.90;99.90;;;;;;5049872;28;20466;-66
2022/04/27 01:30:14;;;;;;;7.00;6.03;;;7.90;99.90;;;;;;5049670;28;20600;-66
2022/04/27 01:33:07;;;;;;;7.57;6.50;;;7.80;99.90;;;;;;5046555;28;20578;-66
2022/04/27 01:35:56;;;;;;;8.27;6.00;;;7.80;99.90;;;;;;5049956;28;21096;-67
2022/04/27 01:38:45;;;;;;;6.77;5.90;;;7.80;99.90;;;;;;5046899;28;21041;-67
2022/04/27 01:41:34;;;;;;;8.60;6.30;;;7.80;99.90;;;;;;5045335;28;20455;-67
2022/04/27 01:44:22;;;;;;;6.83;6.23;;;7.80;99.90;;;;;;5046196;28;20875;-66
2022/04/27 01:47:11;;;;;;;7.37;6.67;;;7.70;99.90;;;;;;5048419;28;20920;-67
2022/04/27 01:49:59;;;;;;;8.07;6.60;;;7.70;99.90;;;;;;5046623;28;21060;-67
2022/04/27 01:55:54;;;;;;;8.13;6.00;;;7.60;99.90;;;;;;5046181;28;20814;-67
2022/04/27 01:58:44;;;;;;;9.40;6.90;;;7.60;99.90;;;;;;5049218;28;20457;-67
2022/04/27 02:01:32;;;;;;;10.60;6.40;;;7.60;99.90;;;;;;5048835;28;20452;-67
2022/04/27 02:04:21;;;;;;;7.80;6.73;;;7.60;99.90;;;;;;5049614;28;21010;-67
2022/04/27 02:07:09;;;;;;;10.37;6.23;;;7.60;99.90;;;;;;5044132;28;20540;-67
2022/04/27 02:09:57;;;;;;;7.83;6.20;;;7.50;99.90;;;;;;5049934;28;20523;-67
2022/04/27 02:12:47;;;;;;;8.53;6.87;;;7.50;99.90;;;;;;5044629;28;20584;-67
2022/04/27 02:15:36;;;;;;;8.10;6.00;;;7.50;99.90;;;;;;5050973;28;20527;-67
2022/04/27 02:18:24;;;;;;;7.00;6.30;;;7.50;99.90;;;;;;5051461;28;20454;-67
2022/04/27 02:21:12;;;;;;;7.20;6.00;;;7.40;99.90;;;;;;5045681;28;20573;-67
2022/04/27 02:24:00;;;;;;;6.70;5.97;;;7.40;99.90;;;;;;5040653;28;20622;-67
2022/04/27 02:26:48;;;;;;;7.40;6.13;;;7.40;99.90;;;;;;5048386;28;20555;-67
2022/04/27 02:29:38;;;;;;;7.73;6.50;;;7.40;99.90;;;;;;5049445;28;20475;-67
2022/04/27 02:32:26;;;;;;;6.77;6.17;;;7.40;99.90;;;;;;5048599;28;21036;-67
2022/04/27 02:35:16;;;;;;;7.13;5.93;;;7.40;99.90;;;;;;5043188;28;20454;-68
2022/04/27 02:38:04;;;;;;;7.70;6.00;;;7.30;99.90;;;;;;5048151;28;20469;-67
2022/04/27 02:40:52;;;;;;;6.87;5.67;;;7.30;99.90;;;;;;5051973;28;20585;-67
2022/04/27 02:43:40;;;;;;;7.63;6.13;;;7.30;99.90;;;;;;5050591;28;20583;-67
2022/04/27 02:46:29;;;;;;;8.20;7.40;;;7.30;99.90;;;;;;5035956;28;20671;-67
2022/04/27 02:52:24;;;;;;;9.80;6.23;;;7.20;99.90;;;;;;5041705;28;21056;-67
2022/04/27 02:55:12;;;;;;;7.27;6.40;;;7.20;99.90;;;;;;5048021;28;20446;-67
2022/04/27 02:58:00;;;;;;;10.10;7.07;;;7.10;99.90;;;;;;5048236;28;20845;-67
2022/04/27 03:00:48;;;;;;;9.67;6.37;;;7.10;99.90;;;;;;5046131;28;20484;-67
2022/04/27 03:03:37;;;;;;;8.57;6.20;;;7.10;99.90;;;;;;5044631;28;20557;-67
2022/04/27 03:06:26;;;;;;;8.37;6.20;;;7.10;99.90;;;;;;5048355;28;20450;-67
2022/04/27 03:09:14;;;;;;;7.93;5.97;;;7.00;99.90;;;;;;5049196;28;20537;-67
2022/04/27 03:12:02;;;;;;;7.23;6.30;;;7.00;99.90;;;;;;5047430;28;20548;-67
2022/04/27 03:14:50;;;;;;;6.90;6.20;;;7.00;99.90;;;;;;5043458;28;20482;-67
2022/04/27 03:17:40;;;;;;;8.00;6.30;;;7.00;99.90;;;;;;5047609;28;20501;-67
2022/04/27 03:20:29;;;;;;;7.87;6.43;;;7.00;99.90;;;;;;5046999;28;21001;-67
2022/04/27 03:23:18;;;;;;;7.37;6.10;;;7.00;99.90;;;;;;5050675;28;20557;-67
2022/04/27 03:26:07;;;;;;;9.20;6.50;;;7.00;99.90;;;;;;5047607;28;21450;-67
2022/04/27 03:28:55;;;;;;;8.40;6.50;;;7.00;99.90;;;;;;5047081;28;20494;-67
2022/04/27 03:31:44;;;;;;;6.87;6.17;;;7.00;99.90;;;;;;5048670;28;20460;-67
2022/04/27 03:34:32;;;;;;;11.47;6.33;;;7.00;99.90;;;;;;5044865;28;20475;-67
2022/04/27 03:37:22;;;;;;;7.00;6.30;;;7.00;99.90;;;;;;5046996;28;20462;-66
2022/04/27 03:40:11;;;;;;;6.73;6.07;;;7.00;99.90;;;;;;5046723;28;20670;-67
2022/04/27 03:43:00;;;;;;;6.80;6.10;;;7.00;99.90;;;;;;5045072;28;20478;-67
2022/04/27 03:45:48;;;;;;;6.93;6.20;;;7.00;99.90;;;;;;5046296;28;20556;-67
2022/04/27 03:48:36;;;;;;;7.40;6.33;;;7.00;99.90;;;;;;5042890;28;20538;-67
2022/04/27 03:51:24;;;;;;;8.03;6.80;;;7.00;99.90;;;;;;5046076;28;20560;-67
2022/04/27 03:54:14;;;;;;;7.27;6.53;;;6.90;99.90;;;;;;5045572;28;20585;-67
2022/04/27 03:57:02;;;;;;;9.20;6.67;;;6.90;99.90;;;;;;5049455;28;20545;-69
2022/04/27 03:59:50;;;;;;;8.90;5.83;;;6.90;99.90;;;;;;5041722;28;20998;-67
2022/04/27 04:02:38;;;;;;;7.73;5.83;;;6.90;99.90;;;;;;5052071;28;20981;-67
2022/04/27 04:05:27;;;;;;;8.13;6.13;;;6.90;99.90;;;;;;5045758;28;20946;-67
2022/04/27 04:08:15;;;;;;;8.53;6.30;;;6.90;99.90;;;;;;5049205;28;20482;-67
2022/04/27 04:11:04;;;;;;;9.87;5.93;;;6.80;99.90;;;;;;5050032;28;20901;-67
2022/04/27 04:13:52;;;;;;;7.50;6.67;;;6.80;99.90;;;;;;5047991;28;21199;-67
2022/04/27 04:16:40;;;;;;;7.93;6.27;;;6.80;99.90;;;;;;5052477;28;20625;-67
2022/04/27 04:19:29;;;;;;;13.07;7.10;;;6.80;99.90;;;;;;5053254;28;20474;-67
2022/04/27 04:22:17;;;;;;;9.00;6.17;;;6.80;99.90;;;;;;5053225;28;20532;-67
2022/04/27 04:31:18;;;;;;;9.30;6.40;;;6.90;99.90;;;;;;5046670;28;20493;-67
2022/04/27 04:34:06;;;;;;;9.90;6.80;;;6.90;99.90;;;;;;5054970;28;20546;-67
2022/04/27 04:36:54;;;;;;;8.70;6.67;;;6.90;99.90;;;;;;5048822;28;20458;-67
2022/04/27 04:39:42;;;;;;;9.67;6.43;;;6.90;99.90;;;;;;5054389;28;20478;-67
2022/04/27 04:42:30;;;;;;;8.20;6.10;;;7.00;99.90;;;;;;5048474;28;20486;-67
2022/04/27 04:45:20;;;;;;;8.83;6.37;;;7.00;99.90;;;;;;5048765;28;20936;-66
2022/04/27 04:48:09;;;;;;;7.40;6.57;;;7.00;99.90;;;;;;5050334;28;20666;-67
2022/04/27 04:50:57;;;;;;;6.93;6.07;;;7.10;99.90;;;;;;5049666;28;20558;-67
2022/04/27 04:53:45;;;;;;;7.13;6.33;;;7.10;99.90;;;;;;5048839;28;20569;-67
2022/04/27 04:56:33;;;;;;;8.10;6.10;;;7.10;99.90;;;;;;5054096;28;20507;-67
2022/04/27 04:59:21;;;;;;;7.13;6.43;;;7.10;99.90;;;;;;5045748;28;21067;-67
2022/04/27 05:02:11;;;;;;;14.77;7.30;;;7.20;99.90;;;;;;5048053;28;20454;-67
2022/04/27 05:05:02;;;;;;;7.03;6.30;;;7.20;99.90;;;;;;5050376;28;20615;-68
2022/04/27 05:07:51;;;;;;;6.97;6.23;;;7.20;99.90;;;;;;5056735;28;20691;-67
2022/04/27 05:10:39;;;;;;;9.10;6.90;;;7.20;99.90;;;;;;5039851;28;20474;-67
2022/04/27 05:13:27;;;;;;;10.27;6.93;;;7.20;99.90;;;;;;5044163;28;20478;-67
2022/04/27 05:16:15;;;;;;;9.30;6.53;;;7.20;99.90;;;;;;5048417;28;20447;-67
2022/04/27 05:19:04;;;;;;;7.70;6.50;;;7.20;99.90;;;;;;5045703;28;20477;-67
2022/04/27 05:21:53;;;;;;;8.37;7.10;;;7.30;99.90;;;;;;5052631;28;20548;-71
2022/04/27 05:24:41;;;;;;;8.47;7.13;;;7.30;99.90;;;;;;5044734;28;20474;-67
2022/04/27 05:27:29;;;;;;;11.80;6.87;;;7.30;99.90;;;;;;5056815;28;20442;-67
2022/04/27 05:33:24;;;;;;;11.67;6.90;;;7.40;99.90;;;;;;5031389;28;20486;-67
2022/04/27 05:36:14;;;;;;;9.70;6.87;;;7.50;99.90;;;;;;5030448;28;20461;-67
2022/04/27 05:39:05;;;;;;;9.53;7.87;;;7.40;99.90;;;;;;5044764;28;21017;-67
2022/04/27 05:41:53;;;;;;;8.17;6.47;;;7.50;99.90;;;;;;5041194;28;20478;-67
2022/04/27 05:44:41;;;;;;;6.80;5.83;;;7.60;99.90;;;;;;5030976;28;20628;-67
2022/04/27 05:47:29;;;;;;;8.33;6.37;;;7.60;99.90;;;;;;5035279;28;20546;-66
2022/04/27 05:50:18;;;;;;;7.17;6.40;;;7.60;99.90;;;;;;5048413;28;20524;-67
2022/04/27 05:53:07;;;;;;;10.00;6.80;;;7.70;99.90;;;;;;5044552;28;20475;-67
2022/04/27 05:55:55;;;;;;;7.83;6.70;;;7.70;99.90;;;;;;5048968;28;20490;-67
2022/04/27 05:58:44;;;;;;;10.97;6.60;;;7.80;99.90;;;;;;5043623;28;20485;-67
2022/04/27 06:01:32;;;;;;;7.20;6.50;;;7.80;99.90;;;;;;5045074;28;21197;-67
2022/04/27 06:04:21;;;;;;;7.17;6.20;;;7.90;99.90;;;;;;5048131;28;20490;-67
2022/04/27 06:07:10;;;;;;;10.40;6.80;;;8.00;99.90;;;;;;5032816;28;21365;-67
2022/04/27 06:09:59;;;;;;;8.30;6.23;;;8.00;99.90;;;;;;5042293;28;20553;-67
2022/04/27 06:12:49;;;;;;;9.60;6.57;;;8.10;99.90;;;;;;5040509;28;20469;-67
2022/04/27 06:15:37;;;;;;;7.47;6.67;;;8.10;99.90;;;;;;5045735;28;20482;-67
2022/04/27 06:18:25;;;;;;;7.57;6.57;;;8.20;99.90;;;;;;5050001;28;20651;-67
2022/04/27 06:21:14;;;;;;;8.40;6.50;;;8.20;99.90;;;;;;5043669;28;20498;-67
2022/04/27 06:24:04;;;;;;;12.10;7.10;;;8.20;99.90;;;;;;5039256;28;20481;-67
2022/04/27 06:26:54;;;;;;;8.03;7.03;;;8.30;99.90;;;;;;5044579;28;20494;-66
2022/04/27 06:29:42;;;;;;;10.73;6.83;;;8.30;99.90;;;;;;5032312;28;20477;-67
2022/04/27 06:32:31;;;;;;;8.60;6.33;;;8.40;99.90;;;;;;5042682;28;21027;-67
2022/04/27 06:35:20;;;;;;;9.57;6.33;;;8.40;99.90;;;;;;5048895;28;20517;-67
2022/04/27 06:38:08;;;;;;;9.83;6.77;;;8.50;99.90;;;;;;5037524;28;20443;-67
2022/04/27 06:41:16;;;;;;;9.83;5.97;;;8.60;99.90;;;;;;5041187;28;20551;-67
2022/04/27 06:44:06;;;;;;;11.07;6.80;;;8.60;99.90;;;;;;5048965;28;20486;-67
2022/04/27 06:46:54;;;;;;;8.33;6.13;;;8.70;99.90;;;;;;5047573;28;20459;-66
2022/04/27 06:49:42;;;;;;;7.73;6.43;;;8.70;99.90;;;;;;5049251;28;20859;-67
2022/04/27 06:52:30;;;;;;;7.40;6.43;;;8.80;99.90;;;;;;5035016;28;20491;-67
2022/04/27 06:55:19;;;;;;;9.83;6.30;;;8.80;99.90;;;;;;5044567;28;20485;-67
2022/04/27 06:58:07;;;;;;;8.47;5.83;;;8.90;99.90;;;;;;5041260;28;21145;-67
2022/04/27 07:00:57;;;;;;;10.37;6.40;;;9.00;99.90;;;;;;5043915;28;20474;-67
2022/04/27 07:03:46;;;;;;;9.90;7.13;;;9.00;99.90;;;;;;5039884;28;21029;-67
2022/04/27 07:06:34;;;;;;;10.60;7.30;;;9.10;99.90;;;;;;5041881;28;20458;-67
2022/04/27 07:09:23;;;;;;;13.17;6.37;;;9.20;99.90;;;;;;5046035;28;20612;-67
2022/04/27 07:12:13;;;;;;;8.93;6.30;;;9.30;99.90;;;;;;5041267;28;20495;-66
2022/04/27 07:15:01;;;;;;;8.07;5.47;;;9.30;99.90;;;;;;5038517;28;20481;-67
2022/04/27 07:17:50;;;;;;;6.90;5.30;;;9.40;99.90;;;;;;5044518;28;20458;-67
2022/04/27 07:20:39;;;;;;;10.40;5.97;;;9.40;99.90;;;;;;5044690;28;20574;-67
2022/04/27 07:23:27;;;;;;;5.80;5.30;;;9.50;99.90;;;;;;5048814;28;20489;-68
2022/04/27 07:26:15;;;;;;;6.17;5.53;;;9.50;99.90;;;;;;5050190;28;20498;-67
2022/04/27 07:29:03;;;;;;;8.87;6.00;;;9.60;99.90;;;;;;5043835;28;20902;-67
2022/04/27 07:31:52;;;;;;;8.87;5.80;;;9.60;99.90;;;;;;5041731;28;20451;-67
2022/04/27 07:34:41;;;;;;;6.37;5.63;;;9.70;99.90;;;;;;5037644;28;20545;-67
2022/04/27 07:37:29;;;;;;;8.70;5.67;;;9.70;99.90;;;;;;5040333;28;20604;-68
2022/04/27 07:40:18;;;;;;;8.57;6.13;;;9.80;99.90;;;;;;5037286;28;20517;-67
2022/04/27 07:43:06;;;;;;;7.20;5.60;;;9.90;99.90;;;;;;5045237;28;20489;-67
2022/04/27 07:45:54;;;;;;;8.33;4.73;;;10.00;99.90;;;;;;5039811;28;20555;-67
2022/04/27 07:48:42;;;;;;;6.40;5.50;;;10.00;99.90;;;;;;5043746;28;20465;-67
2022/04/27 07:51:32;;;;;;;8.60;5.53;;;10.10;99.90;;;;;;5038733;28;20470;-67
2022/04/27 07:54:20;;;;;;;11.13;5.23;;;10.10;99.90;;;;;;5037193;28;20565;-67
2022/04/27 07:57:08;;;;;;;5.37;4.87;;;10.20;99.90;;;;;;5046769;28;20458;-67
2022/04/27 07:59:56;;;;;;;6.93;5.10;;;10.30;99.90;;;;;;5056803;28;20505;-67
2022/04/27 08:02:44;;;;;;;6.43;5.23;;;10.40;99.90;;;;;;5049932;28;20466;-68
2022/04/27 08:05:33;;;;;;;5.17;4.67;;;10.40;99.90;;;;;;5045452;28;21026;-68
2022/04/27 08:08:22;;;;;;;5.27;4.60;;;10.50;99.90;;;;;;5042942;28;20461;-68
2022/04/27 08:11:15;;;;;;;4.97;4.57;;;10.50;99.90;;;;;;5038085;28;21166;-67
2022/04/27 08:14:04;;;;;;;6.10;4.67;;;10.60;99.90;;;;;;5044562;28;20590;-67
2022/04/27 08:16:53;;;;;;;7.47;5.20;;;10.70;99.90;;;;;;5046704;28;20445;-67
2022/04/27 08:19:41;;;;;;;5.90;5.17;;;10.80;99.90;;;;;;5052427;28;20462;-67
2022/04/27 08:22:31;;;;;;;6.33;4.93;;;10.90;99.90;;;;;;5040421;28;20485;-67
2022/04/27 08:25:20;;;;;;;5.80;5.20;;;10.90;99.90;;;;;;5043265;28;20489;-67
2022/04/27 08:28:09;;;;;;;5.70;4.30;;;10.90;99.90;;;;;;5052792;28;20458;-67
2022/04/27 08:30:58;;;;;;;5.40;4.90;;;10.90;99.90;;;;;;5046648;28;20862;-67
2022/04/27 08:33:46;;;;;;;6.27;4.80;;;10.90;99.90;;;;;;5044876;28;21025;-68
2022/04/27 08:36:35;;;;;;;6.40;4.97;;;10.80;99.90;;;;;;5051540;28;20609;-68
2022/04/27 08:39:23;;;;;;;5.47;4.73;;;10.80;99.90;;;;;;5045849;28;20940;-68
2022/04/27 08:42:13;;;;;;;6.57;4.50;;;10.90;99.90;;;;;;5042493;28;20535;-67
2022/04/27 08:45:01;;;;;;;6.30;4.70;;;10.90;99.90;;;;;;5051719;28;20462;-67
2022/04/27 08:47:51;;;;;;;6.43;4.47;;;11.00;99.90;;;;;;5045983;28;20481;-67
2022/04/27 08:50:40;;;;;;;5.00;4.60;;;11.00;99.90;;;;;;5047298;28;20511;-67
2022/04/27 08:53:28;;;;;;;5.50;4.93;;;11.00;99.90;;;;;;5047512;28;20481;-67
2022/04/27 08:56:16;;;;;;;7.60;4.70;;;11.00;99.90;;;;;;5041915;28;20588;-67
2022/04/27 08:59:08;;;;;;;4.53;4.13;;;11.00;99.90;;;;;;5044543;28;20462;-67
2022/04/27 09:01:56;;;;;;;7.03;4.30;;;11.10;99.90;;;;;;5042420;28;20544;-67
2022/04/27 09:04:45;;;;;;;7.70;4.80;;;11.10;99.90;;;;;;5045688;28;20555;-68
2022/04/27 09:07:36;;;;;;;6.40;4.60;;;11.20;99.90;;;;;;5046299;28;20446;-67
2022/04/27 09:10:25;;;;;;;5.10;4.60;;;11.20;99.90;;;;;;5040991;28;20602;-67
2022/04/27 09:13:13;;;;;;;5.23;4.53;;;11.20;99.90;;;;;;5047819;28;20473;-67
2022/04/27 09:16:03;;;;;;;6.07;4.07;;;11.30;99.90;;;;;;5042762;28;20486;-67
2022/04/27 09:22:02;;;;;;;9.13;4.40;;;11.40;99.90;;;;;;5044581;28;20443;-68
2022/04/27 09:24:52;;;;;;;5.23;4.73;;;11.50;99.90;;;;;;5046077;28;21267;-69
2022/04/27 09:27:44;;;;;;;7.50;4.60;;;11.60;99.90;;;;;;5046086;28;20455;-67
2022/04/27 09:30:34;;;;;;;6.07;4.27;;;11.70;99.90;;;;;;5046665;28;21120;-67
2022/04/27 09:33:34;;;;;;;6.27;4.40;;;11.80;99.90;;;;;;5039780;28;20513;-67
2022/04/27 09:36:24;;;;;;;6.60;5.00;;;11.90;99.90;;;;;;5042312;28;20505;-66
2022/04/27 09:39:23;;;;;;;5.93;5.20;;;12.00;99.90;;;;;;5042373;28;20454;-67
2022/04/27 09:42:13;;;;;;;5.10;4.37;;;12.10;99.90;;;;;;5041689;28;20978;-68
2022/04/27 09:45:15;;;;;;;6.30;5.70;;;12.30;99.90;;;;;;5033304;28;138651;-67
2022/04/27 09:48:04;;;;;;;5.43;5.00;;;12.30;99.90;;;;;;5040895;28;20454;-67
2022/04/27 09:50:58;;;;;;;7.60;5.40;;;12.40;99.90;;;;;;5046692;28;20521;-66
2022/04/27 09:53:48;;;;;;;5.57;4.97;;;12.40;99.90;;;;;;5048649;28;20497;-67
2022/04/27 09:56:38;;;;;;;6.23;5.17;;;12.50;99.90;;;;;;5050619;28;20494;-68
2022/04/27 09:59:29;;;;;;;5.60;5.10;;;12.50;99.90;;;;;;5041590;28;20612;-68
2022/04/27 10:02:25;;;;;;;5.40;4.90;;;12.50;99.90;;;;;;5042186;28;20456;-68
2022/04/27 10:05:14;;;;;;;6.40;5.27;;;12.60;99.90;;;;;;5047674;28;20587;-69
2022/04/27 10:08:05;;;;;;;9.63;6.00;;;12.80;99.90;;;;;;5043646;28;20547;-69
2022/04/27 10:10:54;;;;;;;7.10;5.63;;;12.90;99.90;;;;;;5040702;28;20489;-67
2022/04/27 10:13:47;;;;;;;6.07;5.53;;;13.00;99.90;;;;;;5047187;28;20467;-67
2022/04/27 10:16:36;;;;;;;8.30;5.40;;;13.00;99.90;;;;;;5043002;28;20473;-67
2022/04/27 10:19:25;;;;;;;5.40;4.90;;;13.00;99.90;;;;;;5042303;28;20467;-67
2022/04/27 10:22:27;;;;;;;4.90;4.50;;;13.10;99.90;;;;;;5035279;28;20501;-68
2022/04/27 10:25:17;;;;;;;8.07;4.87;;;13.20;99.90;;;;;;5040576;28;20469;-67
2022/04/27 10:28:16;;;;;;;4.80;4.40;;;13.20;99.90;;;;;;5049595;28;20458;-67
2022/04/27 10:31:08;;;;;;;5.13;4.63;;;13.20;99.90;;;;;;5049038;28;20498;-67
2022/04/27 10:33:57;;;;;;;6.80;5.40;;;13.10;99.90;;;;;;5035682;28;20470;-67
2022/04/27 10:36:47;;;;;;;4.93;4.53;;;13.20;99.90;;;;;;5039018;28;20484;-68
2022/04/27 10:39:35;;;;;;;5.50;4.37;;;13.40;99.90;;;;;;5047961;28;20466;-66
2022/04/27 10:42:34;;;;;;;6.13;5.43;;;13.50;99.90;;;;;;5039271;28;24447;-66
2022/04/27 10:45:24;;;;;;;6.10;5.60;;;13.60;99.90;;;;;;5048359;28;20465;-67
2022/04/27 10:48:16;;;;;;;7.10;5.70;;;13.50;99.90;;;;;;5042360;28;22114;-67
2022/04/27 10:51:05;;;;;;;6.30;5.67;;;13.50;99.90;;;;;;5040526;28;20600;-67
2022/04/27 10:54:04;;;;;;;6.57;6.07;;;13.50;99.90;;;;;;5045388;28;21015;-67
2022/04/27 10:57:28;;;;;;;5.90;5.50;;;13.60;99.90;;;;;;5044486;28;20907;-67
2022/04/27 11:00:18;;;;;;;6.33;5.73;;;13.70;99.90;;;;;;5043617;28;20465;-67
2022/04/27 11:03:27;;;;;;;6.37;5.93;;;13.90;99.90;;;;;;5038330;28;20477;-67
2022/04/27 11:06:16;;;;;;;6.30;5.80;;;14.10;99.90;;;;;;5047711;28;20454;-67
2022/04/27 11:09:17;;;;;;;5.83;5.23;;;14.20;99.90;;;;;;5042370;28;20463;-68
2022/04/27 11:12:07;;;;;;;5.30;4.90;;;14.20;99.90;;;;;;5040910;28;20450;-67
2022/04/27 11:14:59;;;;;;;5.10;4.70;;;14.30;99.90;;;;;;5044873;28;20524;-67
2022/04/27 11:17:55;;;;;;;5.33;4.70;;;14.40;99.90;;;;;;5041021;28;22171;-67
2022/04/27 11:20:44;;;;;;;5.60;4.40;;;14.60;99.90;;;;;;5038897;28;20979;-67
2022/04/27 11:23:32;;;;;;;5.50;5.00;;;14.60;99.90;;;;;;5049470;28;20855;-67
2022/04/27 11:26:20;;;;;;;5.80;5.10;;;14.50;99.90;;;;;;5042062;28;20493;-67
2022/04/27 11:29:09;;;;;;;5.17;4.67;;;14.30;99.90;;;;;;5029224;28;20497;-68
2022/04/27 11:31:57;;;;;;;6.23;4.73;;;14.30;99.90;;;;;;5033917;28;20467;-66
2022/04/27 11:34:49;;;;;;;5.10;4.60;;;14.40;99.90;;;;;;5037047;28;20608;-67
2022/04/27 11:37:38;;;;;;;5.23;4.60;;;14.40;99.90;;;;;;5034358;28;21544;-67
2022/04/27 11:40:27;;;;;;;5.27;4.80;;;14.30;99.90;;;;;;5027497;28;20600;-67
2022/04/27 11:43:23;;;;;;;5.67;4.77;;;14.40;99.90;;;;;;5034857;28;20481;-67
2022/04/27 11:46:12;;;;;;;5.10;4.60;;;14.60;99.90;;;;;;5040404;28;20520;-67
2022/04/27 11:49:00;;;;;;;5.03;4.60;;;14.60;99.90;;;;;;5037547;28;20454;-68
2022/04/27 11:51:50;;;;;;;5.40;4.90;;;14.70;99.90;;;;;;5041712;28;20470;-68
2022/04/27 11:54:38;;;;;;;4.70;4.30;;;14.80;99.90;;;;;;5038814;28;20493;-68
2022/04/27 11:57:26;;;;;;;7.10;4.57;;;14.90;99.90;;;;;;5037612;28;20510;-67
2022/04/27 12:00:20;;;;;;;5.10;4.57;;;15.10;99.90;;;;;;5028629;28;20715;-67
2022/04/27 12:03:08;;;;;;;5.37;4.57;;;15.20;99.90;;;;;;5021324;28;20521;-67
2022/04/27 12:05:57;;;;;;;4.73;4.33;;;15.20;99.90;;;;;;5029829;28;20449;-67
2022/04/27 12:08:46;;;;;;;5.70;4.50;;;15.40;99.90;;;;;;5032602;28;20907;-67
2022/04/27 12:11:35;;;;;;;4.20;3.80;;;15.50;99.90;;;;;;5036633;28;20459;-67
2022/04/27 12:14:23;;;;;;;5.77;4.77;;;15.80;99.90;;;;;;5029800;28;20942;-67
2022/04/27 12:17:46;;;;;;;5.00;4.60;;;15.90;99.90;;;;;;5030305;28;20478;-67
2022/04/27 12:20:37;;;;;;;5.40;4.50;;;16.00;99.90;;;;;;5038967;28;20528;-67
2022/04/27 12:23:37;;;;;;;4.53;4.13;;;15.90;99.90;;;;;;5026372;28;20491;-67
2022/04/27 12:26:39;;;;;;;5.47;4.97;;;15.90;99.90;;;;;;5036804;28;20798;-67
2022/04/27 12:29:32;;;;;;;5.20;3.90;;;15.90;99.90;;;;;;5033188;28;20500;-67
2022/04/27 12:32:21;;;;;;;5.10;4.70;;;16.00;99.90;;;;;;5026655;28;20456;-67
2022/04/27 12:38:17;;;;;;;5.13;4.70;;;16.10;99.90;;;;;;5046615;28;20475;-67
2022/04/27 12:41:06;;;;;;;4.90;4.50;;;16.20;99.90;;;;;;5032833;28;21229;-67
2022/04/27 12:44:06;;;;;;;5.13;4.63;;;16.40;99.90;;;;;;5033166;28;20500;-67
2022/04/27 12:47:16;;;;;;;5.40;4.67;;;16.50;99.90;;;;;;5041092;28;20527;-68
2022/04/27 12:50:05;;;;;;;5.10;4.60;;;16.60;99.90;;;;;;5040890;28;20478;-69
2022/04/27 12:53:07;;;;;;;6.30;4.90;;;16.70;99.90;;;;;;5041682;28;20474;-68
2022/04/27 12:56:06;;;;;;;6.63;5.07;;;17.00;99.90;;;;;;5043160;28;20489;-68
2022/04/27 12:59:06;;;;;;;5.03;4.63;;;17.30;99.90;;;;;;5040280;28;21088;-68
2022/04/27 13:02:00;;;;;;;4.73;4.27;;;17.50;99.90;;;;;;5041863;28;20457;-69
2022/04/27 13:04:49;;;;;;;4.47;4.17;;;17.50;99.90;;;;;;5043977;28;20477;-68
2022/04/27 13:07:37;;;;;;;5.50;4.93;;;17.60;99.90;;;;;;5034486;28;20450;-69
2022/04/27 13:13:32;;;;;;;4.70;4.30;;;17.90;99.90;;;;;;5040702;28;21107;-68
2022/04/27 13:16:23;;;;;;;5.00;4.07;;;17.90;99.90;;;;;;5017798;28;20467;-70
2022/04/27 13:19:16;;;;;;;4.97;4.57;;;18.00;99.90;;;;;;5034124;28;20466;-69
2022/04/27 13:22:05;;;;;;;5.50;5.00;;;18.10;99.90;;;;;;5045695;28;20486;-70
2022/04/27 13:24:53;;;;;;;4.53;4.23;;;18.20;99.90;;;;;;5040846;28;20495;-69
2022/04/27 13:27:43;;;;;;;4.57;4.20;;;18.30;99.90;;;;;;5042846;28;20473;-70
2022/04/27 13:30:31;;;;;;;5.33;4.47;;;18.50;99.90;;;;;;5044497;28;20993;-70
2022/04/27 13:33:21;;;;;;;4.60;4.20;;;18.70;99.90;;;;;;5026172;28;20474;-70
2022/04/27 13:36:09;;;;;;;5.43;4.33;;;18.80;99.90;;;;;;5046331;28;20470;-70
2022/04/27 13:38:58;;;;;;;4.23;3.87;;;18.90;99.90;;;;;;5050334;28;20481;-69
2022/04/27 13:41:46;;;;;;;4.80;4.40;;;19.10;99.90;;;;;;5040669;28;20492;-70
2022/04/27 13:44:34;;;;;;;4.83;4.00;;;19.20;99.90;;;;;;5040201;28;20477;-69
2022/04/27 13:47:23;;;;;;;4.50;4.20;;;19.30;99.90;;;;;;5036566;28;20504;-69
2022/04/27 13:50:13;;;;;;;4.37;3.97;;;19.40;99.90;;;;;;5039737;28;20565;-69
2022/04/27 13:53:10;;;;;;;4.60;4.20;;;19.40;99.90;;;;;;5042110;28;20478;-67
2022/04/27 13:55:58;;;;;;;5.20;4.10;;;19.30;99.90;;;;;;5040959;28;20465;-67
2022/04/27 13:58:46;;;;;;;4.83;4.43;;;19.30;99.90;;;;;;5039260;28;20529;-67
2022/04/27 14:01:38;;;;;;;4.77;4.30;;;19.40;99.90;;;;;;5032861;28;20486;-67
2022/04/27 14:04:27;;;;;;;4.30;3.90;;;19.60;99.90;;;;;;5030457;28;20478;-68
2022/04/27 14:07:16;;;;;;;4.77;4.30;;;19.70;99.90;;;;;;5041888;28;20997;-69
2022/04/27 14:10:06;;;;;;;6.10;4.80;;;19.90;99.90;;;;;;5037521;28;20478;-69
2022/04/27 14:19:15;;;;;;;5.20;4.80;;;18.80;99.90;;;;;;5047886;28;20477;-69
2022/04/27 14:22:04;;;;;;;5.57;5.07;;;18.90;99.90;;;;;;5043584;28;20458;-69
2022/04/27 14:24:53;;;;;;;5.20;4.80;;;18.80;99.90;;;;;;5041834;28;20493;-69
2022/04/27 14:27:42;;;;;;;6.23;5.27;;;18.50;99.90;;;;;;5048146;28;20446;-69
2022/04/27 14:30:30;;;;;;;5.17;4.30;;;18.10;99.90;;;;;;5046034;28;20485;-69
2022/04/27 14:33:20;;;;;;;4.73;4.33;;;17.90;99.90;;;;;;5044023;28;20490;-69
2022/04/27 14:36:09;;;;;;;5.20;4.70;;;17.80;99.90;;;;;;5045887;28;20453;-69
2022/04/27 14:38:58;;;;;;;4.80;4.40;;;18.00;99.90;;;;;;5044396;28;20720;-69
2022/04/27 14:41:47;;;;;;;4.53;4.13;;;18.20;99.90;;;;;;5043927;28;20446;-69
2022/04/27 14:44:35;;;;;;;5.00;4.53;;;18.40;99.90;;;;;;5047440;28;20473;-69
2022/04/27 14:47:24;;;;;;;4.80;4.40;;;18.70;99.90;;;;;;5048222;28;21003;-69
2022/04/27 14:50:12;;;;;;;5.10;4.50;;;18.70;99.90;;;;;;5043853;28;20481;-69
2022/04/27 14:53:03;;;;;;;5.20;4.80;;;18.90;99.90;;;;;;5047530;28;20482;-69
2022/04/27 14:55:51;;;;;;;4.90;4.50;;;18.80;99.90;;;;;;5041390;28;20544;-69
2022/04/27 14:58:41;;;;;;;4.67;4.27;;;18.60;99.90;;;;;;5040508;28;20534;-69
2022/04/27 15:01:29;;;;;;;5.03;4.63;;;18.40;99.90;;;;;;5049335;28;20485;-69
2022/04/27 15:04:17;;;;;;;5.80;5.20;;;18.60;99.90;;;;;;5042292;28;20484;-68
2022/04/27 15:07:05;;;;;;;5.17;4.70;;;18.60;99.90;;;;;;5043600;28;21252;-69
2022/04/27 15:09:53;;;;;;;4.80;4.40;;;18.60;99.90;;;;;;5046020;28;20883;-69
2022/04/27 15:12:42;;;;;;;5.07;4.60;;;18.50;99.90;;;;;;5042783;28;20482;-69
2022/04/27 15:15:31;;;;;;;5.50;4.87;;;18.20;99.90;;;;;;5039420;28;20445;-69
2022/04/27 15:18:19;;;;;;;4.90;4.50;;;18.10;99.90;;;;;;5044620;28;20978;-68